createdAt,value
2018-10-05T00:05:07.846Z,21.93
2018-10-05T00:07:38.670Z,21.90
2018-10-05T00:10:09.509Z,23.93
2018-10-05T00:12:40.410Z,27.33
2018-10-05T00:15:10.937Z,20.03
2018-10-05T00:17:44.899Z,20.70
2018-10-05T00:20:15.720Z,18.00
2018-10-05T00:22:46.349Z,21.63
2018-10-05T00:25:16.860Z,20.83
2018-10-05T00:27:47.534Z,23.80
2018-10-05T00:30:19.350Z,21.13
2018-10-05T00:32:50.208Z,22.70
2018-10-05T00:35:20.933Z,20.37
2018-10-05T00:37:51.871Z,19.03
2018-10-05T00:40:23.067Z,19.27
2018-10-05T00:42:53.969Z,21.17
2018-10-05T00:45:25.079Z,21.20
2018-10-05T00:47:56.563Z,15.87
2018-10-05T00:50:27.154Z,16.33
2018-10-05T00:52:58.772Z,22.93
2018-10-05T00:55:29.581Z,22.57
2018-10-05T00:58:01.165Z,21.10
2018-10-05T01:00:32.860Z,16.80
2018-10-05T01:03:03.452Z,19.80
2018-10-05T01:05:34.246Z,17.13
2018-10-05T01:08:05.341Z,19.00
2018-10-05T01:10:35.801Z,18.33
2018-10-05T01:13:06.791Z,17.10
2018-10-05T01:15:37.991Z,20.53
2018-10-05T01:18:10.077Z,18.43
2018-10-05T01:20:40.623Z,19.43
2018-10-05T01:23:11.886Z,19.63
2018-10-05T01:25:42.670Z,19.70
2018-10-05T01:28:23.373Z,17.27
2018-10-05T01:30:54.010Z,15.93
2018-10-05T01:33:24.832Z,21.33
2018-10-05T01:35:55.711Z,18.60
2018-10-05T01:38:26.273Z,22.50
2018-10-05T01:40:57.182Z,17.20
2018-10-05T01:43:28.156Z,19.00
2018-10-05T01:45:59.474Z,20.40
2018-10-05T01:48:30.373Z,14.63
2018-10-05T01:51:02.369Z,20.33
2018-10-05T01:53:33.506Z,23.30
2018-10-05T01:56:05.387Z,18.77
2018-10-05T01:58:37.285Z,20.40
2018-10-05T02:01:08.655Z,21.20
2018-10-05T02:03:39.292Z,22.10
2018-10-05T02:06:10.257Z,17.83
2018-10-05T02:08:41.925Z,16.30
2018-10-05T02:11:13.058Z,16.50
2018-10-05T02:13:44.458Z,23.17
2018-10-05T02:16:15.800Z,20.50
2018-10-05T02:18:46.670Z,16.83
2018-10-05T02:21:18.019Z,18.53
2018-10-05T02:23:48.983Z,16.40
2018-10-05T02:26:19.734Z,25.73
2018-10-05T02:28:50.869Z,19.87
2018-10-05T02:31:21.731Z,28.33
2018-10-05T02:33:52.519Z,22.53
2018-10-05T02:36:23.746Z,17.47
2018-10-05T02:38:54.729Z,18.73
2018-10-05T02:41:25.372Z,21.37
2018-10-05T02:43:56.070Z,17.83
2018-10-05T02:46:27.436Z,20.50
2018-10-05T02:48:58.548Z,17.90
2018-10-05T02:51:29.246Z,21.97
2018-10-05T02:54:00.428Z,21.40
2018-10-05T02:56:31.270Z,19.37
2018-10-05T02:59:02.263Z,19.33
2018-10-05T03:01:43.472Z,23.80
2018-10-05T03:04:14.352Z,21.37
2018-10-05T03:06:45.470Z,22.17
2018-10-05T03:09:16.730Z,17.90
2018-10-05T03:11:48.230Z,15.70
2018-10-05T03:14:19.412Z,27.63
2018-10-05T03:16:50.367Z,28.17
2018-10-05T03:19:21.387Z,21.10
2018-10-05T03:21:52.698Z,21.57
2018-10-05T03:24:23.585Z,24.10
2018-10-05T03:26:54.831Z,19.57
2018-10-05T03:29:25.384Z,28.63
2018-10-05T03:31:56.387Z,25.97
2018-10-05T03:34:27.981Z,20.20
2018-10-05T03:36:59.032Z,22.23
2018-10-05T03:39:30.193Z,22.70
2018-10-05T03:42:01.622Z,23.80
2018-10-05T03:44:32.360Z,24.50
2018-10-05T03:47:03.396Z,22.67
2018-10-05T03:49:34.918Z,22.23
2018-10-05T03:52:05.692Z,18.77
2018-10-05T03:54:37.053Z,20.03
2018-10-05T03:57:10.019Z,27.53
2018-10-05T03:59:41.950Z,25.53
2018-10-05T04:02:13.510Z,25.13
2018-10-05T04:04:48.414Z,26.57
2018-10-05T04:07:19.938Z,19.90
2018-10-05T04:09:50.976Z,22.17
2018-10-05T04:12:21.900Z,22.67
2018-10-05T04:14:53.058Z,24.80
2018-10-05T04:17:25.106Z,20.87
2018-10-05T04:19:56.825Z,23.00
2018-10-05T04:22:30.907Z,20.50
2018-10-05T04:25:03.766Z,21.40
2018-10-05T04:27:35.773Z,20.20
2018-10-05T04:30:07.093Z,24.10
2018-10-05T04:32:38.735Z,22.33
2018-10-05T04:35:10.281Z,27.50
2018-10-05T04:37:41.635Z,23.57
2018-10-05T04:40:13.289Z,23.87
2018-10-05T04:42:45.183Z,25.60
2018-10-05T04:45:18.514Z,28.57
2018-10-05T04:47:49.410Z,20.10
2018-10-05T04:50:19.628Z,27.10
2018-10-05T04:52:49.845Z,24.30
2018-10-05T04:55:20.092Z,26.07
2018-10-05T04:57:50.363Z,23.73
2018-10-05T05:00:20.348Z,27.17
2018-10-05T05:02:50.510Z,19.03
2018-10-05T05:05:21.144Z,24.27
2018-10-05T05:07:51.698Z,31.47
2018-10-05T05:10:22.044Z,25.17
2018-10-05T05:12:52.431Z,25.00
2018-10-05T05:15:23.184Z,22.17
2018-10-05T05:17:53.518Z,20.23
2018-10-05T05:20:24.040Z,23.97
2018-10-05T05:22:54.033Z,23.17
2018-10-05T05:25:24.226Z,20.03
2018-10-05T05:27:55.030Z,20.53
2018-10-05T05:30:25.317Z,31.60
2018-10-05T05:32:55.296Z,17.00
2018-10-05T05:35:25.489Z,21.73
2018-10-05T05:37:55.906Z,20.47
2018-10-05T05:40:25.847Z,21.57
2018-10-05T05:42:55.915Z,29.40
2018-10-05T05:45:26.237Z,26.47
2018-10-05T05:47:56.488Z,31.17
2018-10-05T05:50:26.858Z,24.67
2018-10-05T05:52:57.220Z,23.20
2018-10-05T05:55:27.245Z,20.07
2018-10-05T05:57:57.591Z,24.80
2018-10-05T06:00:28.251Z,25.57
2018-10-05T06:02:58.999Z,23.90
2018-10-05T06:05:29.950Z,27.53
2018-10-05T06:08:00.091Z,26.03
2018-10-05T06:10:30.008Z,24.47
2018-10-05T06:13:00.263Z,20.07
2018-10-05T06:15:30.267Z,23.23
2018-10-05T06:18:00.881Z,21.77
2018-10-05T06:20:30.842Z,25.37
2018-10-05T06:23:00.817Z,27.97
2018-10-05T06:25:30.834Z,25.93
2018-10-05T06:28:00.749Z,25.93
2018-10-05T06:30:32.356Z,30.87
2018-10-05T06:33:02.297Z,26.43
2018-10-05T06:35:32.669Z,19.83
2018-10-05T06:38:02.908Z,29.93
2018-10-05T06:40:33.087Z,29.60
2018-10-05T06:43:04.804Z,28.73
2018-10-05T06:45:40.428Z,29.93
2018-10-05T06:48:10.602Z,27.93
2018-10-05T06:50:40.744Z,34.43
2018-10-05T06:53:11.163Z,34.63
2018-10-05T06:55:41.358Z,36.37
2018-10-05T06:58:11.336Z,33.60
2018-10-05T07:00:41.304Z,28.90
2018-10-05T07:03:11.424Z,26.53
2018-10-05T07:05:41.828Z,29.53
2018-10-05T07:08:11.902Z,34.57
2018-10-05T07:10:42.048Z,22.70
2018-10-05T07:13:12.146Z,27.07
2018-10-05T07:15:42.219Z,19.83
2018-10-05T07:18:12.302Z,26.57
2018-10-05T07:20:42.478Z,19.17
2018-10-05T07:23:12.755Z,17.20
2018-10-05T07:25:43.211Z,23.20
2018-10-05T07:28:13.449Z,18.43
2018-10-05T07:30:43.810Z,14.53
2018-10-05T07:33:14.646Z,17.50
2018-10-05T07:35:45.286Z,19.67
2018-10-05T07:38:16.718Z,10.67
2018-10-05T07:40:47.740Z,16.00
2018-10-05T07:43:20.119Z,15.07
2018-10-05T07:45:51.046Z,12.93
2018-10-05T07:48:23.530Z,9.50
2018-10-05T07:50:55.117Z,18.93
2018-10-05T07:53:26.910Z,13.97
2018-10-05T07:55:59.454Z,11.13
2018-10-05T07:58:30.202Z,15.93
2018-10-05T08:01:01.256Z,12.87
2018-10-05T08:03:33.120Z,11.20
2018-10-05T08:06:04.420Z,13.17
2018-10-05T08:08:36.110Z,14.03
2018-10-05T08:11:07.952Z,15.10
2018-10-05T08:13:39.218Z,13.97
2018-10-05T08:16:11.044Z,10.67
2018-10-05T08:18:43.061Z,10.30
2018-10-05T08:21:14.550Z,12.77
2018-10-05T08:23:46.850Z,10.67
2018-10-05T08:26:17.508Z,12.23
2018-10-05T08:28:48.580Z,9.40
2018-10-05T08:31:21.120Z,9.87
2018-10-05T08:33:52.468Z,10.50
2018-10-05T08:36:24.077Z,11.87
2018-10-05T08:38:55.579Z,11.27
2018-10-05T08:41:26.636Z,11.17
2018-10-05T08:43:58.979Z,13.47
2018-10-05T08:46:30.448Z,9.20
2018-10-05T08:49:00.973Z,14.00
2018-10-05T08:51:32.127Z,18.03
2018-10-05T08:54:02.765Z,12.40
2018-10-05T08:56:34.377Z,15.20
2018-10-05T08:59:05.551Z,13.33
2018-10-05T09:01:37.026Z,9.40
2018-10-05T09:04:08.351Z,12.03
2018-10-05T09:06:39.177Z,11.93
2018-10-05T09:09:10.475Z,9.40
2018-10-05T09:11:42.097Z,15.83
2018-10-05T09:14:14.293Z,9.03
2018-10-05T09:16:45.401Z,10.23
2018-10-05T09:19:16.853Z,11.20
2018-10-05T09:21:47.760Z,14.43
2018-10-05T09:24:19.543Z,12.00
2018-10-05T09:26:51.032Z,11.03
2018-10-05T09:29:23.761Z,12.83
2018-10-05T09:31:54.423Z,10.70
2018-10-05T09:34:27.049Z,12.93
2018-10-05T09:36:58.034Z,13.13
2018-10-05T09:39:29.939Z,11.33
2018-10-05T09:42:01.100Z,11.53
2018-10-05T09:44:32.566Z,9.47
2018-10-05T09:47:04.326Z,15.10
2018-10-05T09:49:35.781Z,12.43
2018-10-05T09:52:07.820Z,8.37
2018-10-05T09:54:39.467Z,10.67
2018-10-05T09:57:11.151Z,11.10
2018-10-05T09:59:42.313Z,13.70
2018-10-05T10:02:24.177Z,8.37
2018-10-05T10:05:02.182Z,9.87
2018-10-05T10:07:33.088Z,9.70
2018-10-05T10:10:06.592Z,7.67
2018-10-05T10:12:38.872Z,10.83
2018-10-05T10:15:11.667Z,8.13
2018-10-05T10:17:43.353Z,7.80
2018-10-05T10:20:27.039Z,10.03
2018-10-05T10:23:00.875Z,8.50
2018-10-05T10:25:33.595Z,9.53
2018-10-05T10:28:04.736Z,8.83
2018-10-05T10:30:35.593Z,9.43
2018-10-05T10:33:07.127Z,6.83
2018-10-05T10:35:40.751Z,9.37
2018-10-05T10:38:11.909Z,9.77
2018-10-05T10:40:42.565Z,7.03
2018-10-05T10:43:20.071Z,10.30
2018-10-05T10:45:51.843Z,8.00
2018-10-05T10:48:22.683Z,7.67
2018-10-05T10:50:53.358Z,8.90
2018-10-05T10:53:27.992Z,7.73
2018-10-05T10:55:59.650Z,8.17
2018-10-05T10:58:32.765Z,8.27
2018-10-05T11:01:04.199Z,9.33
2018-10-05T11:03:35.433Z,7.47
2018-10-05T11:06:07.111Z,9.18
2018-10-05T11:08:38.348Z,9.45
2018-10-05T11:11:09.377Z,9.73
2018-10-05T11:13:40.416Z,8.50
2018-10-05T11:16:11.499Z,7.30
2018-10-05T11:18:45.706Z,7.35
2018-10-05T11:21:16.321Z,8.38
2018-10-05T11:23:47.935Z,8.45
2018-10-05T11:26:19.047Z,8.48
2018-10-05T11:28:50.282Z,8.40
2018-10-05T11:31:21.579Z,10.00
2018-10-05T11:33:52.250Z,6.42
2018-10-05T11:36:23.581Z,6.53
2018-10-05T11:38:54.424Z,7.67
2018-10-05T11:41:25.053Z,8.90
2018-10-05T11:43:55.999Z,6.70
2018-10-05T11:46:27.811Z,7.25
2018-10-05T11:48:59.313Z,9.23
2018-10-05T11:51:30.930Z,5.92
2018-10-05T11:54:04.205Z,7.45
2018-10-05T11:56:34.421Z,9.83
2018-10-05T11:59:05.459Z,7.30
2018-10-05T12:01:37.638Z,10.13
2018-10-05T12:04:08.228Z,8.05
2018-10-05T12:06:38.159Z,8.53
2018-10-05T12:09:09.681Z,9.50
2018-10-05T12:11:41.050Z,6.33
2018-10-05T12:14:11.840Z,8.48
2018-10-05T12:16:41.989Z,8.60
2018-10-05T12:19:13.020Z,7.97
2018-10-05T12:21:43.597Z,10.25
2018-10-05T12:24:13.532Z,5.55
2018-10-05T12:26:43.322Z,6.83
2018-10-05T12:29:13.718Z,5.87
2018-10-05T12:31:44.114Z,4.90
2018-10-05T12:34:15.118Z,5.60
2018-10-05T12:36:48.971Z,6.97
2018-10-05T12:39:19.566Z,3.70
2018-10-05T12:41:49.801Z,5.80
2018-10-05T12:44:19.716Z,6.45
2018-10-05T12:46:49.858Z,5.65
2018-10-05T12:49:20.136Z,5.50
2018-10-05T12:51:52.358Z,5.67
2018-10-05T12:54:22.265Z,6.28
2018-10-05T12:56:52.345Z,4.10
2018-10-05T12:59:23.525Z,3.92
2018-10-05T13:01:53.496Z,6.08
2018-10-05T13:04:23.551Z,4.97
2018-10-05T13:06:54.562Z,4.92
2018-10-05T13:09:24.695Z,5.67
2018-10-05T13:11:54.915Z,5.83
2018-10-05T13:14:24.705Z,6.20
2018-10-05T13:16:54.320Z,5.28
2018-10-05T13:19:26.461Z,7.47
2018-10-05T13:21:56.865Z,4.87
2018-10-05T13:24:34.051Z,3.50
2018-10-05T13:27:04.358Z,8.80
2018-10-05T13:29:35.364Z,6.22
2018-10-05T13:32:05.116Z,4.97
2018-10-05T13:34:35.274Z,6.17
2018-10-05T13:37:05.796Z,3.15
2018-10-05T13:39:35.353Z,5.42
2018-10-05T13:42:06.193Z,5.42
2018-10-05T13:44:36.293Z,5.15
2018-10-05T13:47:06.153Z,4.47
2018-10-05T13:49:36.356Z,4.35
2018-10-05T13:52:06.872Z,4.95
2018-10-05T13:54:36.994Z,5.67
2018-10-05T13:57:07.249Z,6.85
2018-10-05T13:59:38.360Z,4.95
2018-10-05T14:02:08.442Z,6.65
2018-10-05T14:04:39.955Z,3.30
2018-10-05T14:07:10.428Z,6.33
2018-10-05T14:09:40.264Z,6.72
2018-10-05T14:12:10.028Z,6.12
2018-10-05T14:14:41.272Z,3.83
2018-10-05T14:17:11.284Z,4.70
2018-10-05T14:19:41.518Z,3.92
2018-10-05T14:22:12.825Z,4.67
2018-10-05T14:24:42.786Z,7.12
2018-10-05T14:27:13.114Z,5.45
2018-10-05T14:29:43.107Z,5.00
2018-10-05T14:32:12.515Z,4.97
2018-10-05T14:34:45.300Z,6.97
2018-10-05T14:37:14.991Z,6.50
2018-10-05T14:39:45.050Z,6.47
2018-10-05T14:42:15.125Z,4.87
2018-10-05T14:44:45.022Z,3.62
2018-10-05T14:47:14.801Z,2.67
2018-10-05T14:49:44.779Z,4.25
2018-10-05T14:52:18.798Z,3.20
2018-10-05T14:54:48.866Z,5.97
2018-10-05T14:57:20.681Z,4.25
2018-10-05T14:59:51.516Z,4.25
2018-10-05T15:02:21.259Z,4.40
2018-10-05T15:04:51.439Z,3.47
2018-10-05T15:07:21.411Z,2.80
2018-10-05T15:09:50.911Z,4.58
2018-10-05T15:12:20.534Z,4.25
2018-10-05T15:14:50.531Z,3.98
2018-10-05T15:17:20.503Z,3.67
2018-10-05T15:19:50.557Z,5.53
2018-10-05T15:22:20.149Z,2.85
2018-10-05T15:24:49.980Z,2.87
2018-10-05T15:27:19.704Z,5.83
2018-10-05T15:29:50.140Z,4.00
2018-10-05T15:32:19.745Z,3.27
2018-10-05T15:34:49.806Z,4.60
2018-10-05T15:37:19.904Z,3.12
2018-10-05T15:39:49.997Z,6.90
2018-10-05T15:42:20.993Z,4.72
2018-10-05T15:44:50.938Z,3.75
2018-10-05T15:47:21.269Z,4.20
2018-10-05T15:49:51.125Z,3.92
2018-10-05T15:52:21.015Z,5.10
2018-10-05T15:54:51.327Z,3.22
2018-10-05T15:57:21.910Z,3.65
2018-10-05T15:59:52.051Z,4.08
2018-10-05T16:02:22.647Z,5.30
2018-10-05T16:04:54.076Z,4.30
2018-10-05T16:07:23.949Z,5.00
2018-10-05T16:09:55.014Z,3.87
2018-10-05T16:12:25.795Z,4.87
2018-10-05T16:14:56.153Z,4.10
2018-10-05T16:17:26.831Z,4.63
2018-10-05T16:19:57.090Z,3.50
2018-10-05T16:22:27.660Z,3.20
2018-10-05T16:24:57.708Z,7.03
2018-10-05T16:27:27.974Z,4.80
2018-10-05T16:29:58.256Z,4.93
2018-10-05T16:32:29.093Z,4.67
2018-10-05T16:34:59.760Z,4.87
2018-10-05T16:37:29.850Z,3.80
2018-10-05T16:40:00.298Z,3.97
2018-10-05T16:42:30.691Z,5.83
2018-10-05T16:45:00.918Z,7.27
2018-10-05T16:47:31.140Z,6.03
2018-10-05T16:50:02.523Z,4.70
2018-10-05T16:52:32.868Z,5.23
2018-10-05T16:55:03.689Z,4.87
2018-10-05T16:57:34.194Z,5.00
2018-10-05T17:00:04.171Z,3.53
2018-10-05T17:02:34.380Z,4.50
2018-10-05T17:05:04.938Z,7.27
2018-10-05T17:07:35.018Z,5.20
2018-10-05T17:10:06.915Z,7.87
2018-10-05T17:12:37.058Z,3.63
2018-10-05T17:15:07.919Z,4.13
2018-10-05T17:17:38.251Z,6.00
2018-10-05T17:20:08.472Z,6.07
2018-10-05T17:22:38.250Z,6.30
2018-10-05T17:25:07.952Z,5.47
2018-10-05T17:27:38.090Z,9.70
2018-10-05T17:30:08.139Z,6.43
2018-10-05T17:32:38.237Z,6.77
2018-10-05T17:35:08.019Z,5.23
2018-10-05T17:37:38.436Z,6.67
2018-10-05T17:40:09.005Z,4.83
2018-10-05T17:42:38.898Z,7.17
2018-10-05T17:45:08.595Z,4.77
2018-10-05T17:47:39.807Z,5.53
2018-10-05T17:50:09.888Z,7.53
2018-10-05T17:52:39.977Z,4.67
2018-10-05T17:55:09.968Z,5.27
2018-10-05T17:57:39.566Z,5.77
2018-10-05T18:00:10.342Z,4.27
2018-10-05T18:02:40.768Z,5.10
2018-10-05T18:05:11.376Z,5.53
2018-10-05T18:07:42.276Z,4.13
2018-10-05T18:10:12.004Z,5.80
2018-10-05T18:12:41.930Z,4.70
2018-10-05T18:15:11.584Z,5.83
2018-10-05T18:17:41.475Z,7.83
2018-10-05T18:20:18.652Z,6.80
2018-10-05T18:22:49.032Z,8.10
2018-10-05T18:25:24.934Z,6.83
2018-10-05T18:27:55.208Z,7.40
2018-10-05T18:30:25.380Z,8.27
2018-10-05T18:32:56.074Z,7.93
2018-10-05T18:35:25.932Z,7.00
2018-10-05T18:37:56.530Z,9.13
2018-10-05T18:40:26.327Z,7.60
2018-10-05T18:42:58.620Z,5.93
2018-10-05T18:45:28.465Z,6.20
2018-10-05T18:47:59.191Z,9.87
2018-10-05T18:50:35.113Z,4.73
2018-10-05T18:53:05.028Z,6.63
2018-10-05T18:55:38.567Z,6.00
2018-10-05T18:58:08.453Z,9.40
2018-10-05T19:00:38.205Z,10.73
2018-10-05T19:03:09.395Z,7.20
2018-10-05T19:05:39.142Z,7.70
2018-10-05T19:08:09.237Z,10.60
2018-10-05T19:10:39.183Z,9.37
2018-10-05T19:13:08.843Z,14.43
2018-10-05T19:15:38.765Z,7.77
2018-10-05T19:18:08.563Z,13.90
2018-10-05T19:20:38.812Z,12.40
2018-10-05T19:23:08.602Z,8.70
2018-10-05T19:25:38.605Z,8.67
2018-10-05T19:28:11.590Z,5.60
2018-10-05T19:30:41.656Z,7.30
2018-10-05T19:33:13.388Z,8.03
2018-10-05T19:35:44.608Z,7.30
2018-10-05T19:38:15.081Z,6.10
2018-10-05T19:40:46.111Z,6.43
2018-10-05T19:43:16.848Z,7.73
2018-10-05T19:45:47.172Z,6.30
2018-10-05T19:48:17.758Z,8.40
2018-10-05T19:50:48.260Z,9.37
2018-10-05T19:53:18.226Z,7.30
2018-10-05T19:55:51.146Z,8.23
2018-10-05T19:58:21.809Z,6.77
2018-10-05T20:00:52.924Z,9.83
2018-10-05T20:03:23.775Z,9.47
2018-10-05T20:05:54.099Z,7.53
2018-10-05T20:08:25.229Z,6.43
2018-10-05T20:10:56.316Z,6.47
2018-10-05T20:13:26.983Z,5.93
2018-10-05T20:15:57.651Z,8.27
2018-10-05T20:18:28.727Z,8.43
2018-10-05T20:21:00.093Z,11.07
2018-10-05T20:23:30.615Z,9.43
2018-10-05T20:26:01.645Z,9.83
2018-10-05T20:28:32.771Z,6.50
2018-10-05T20:31:04.694Z,6.30
2018-10-05T20:33:35.573Z,8.10
2018-10-05T20:36:07.011Z,8.37
2018-10-05T20:38:38.034Z,6.60
2018-10-05T20:41:08.716Z,7.33
2018-10-05T20:43:41.872Z,7.70
2018-10-05T20:46:13.373Z,6.83
2018-10-05T20:48:44.368Z,8.83
2018-10-05T20:51:18.715Z,8.93
2018-10-05T20:53:48.727Z,10.73
2018-10-05T20:56:20.125Z,7.07
2018-10-05T20:58:51.841Z,10.93
2018-10-05T21:01:23.241Z,8.27
2018-10-05T21:03:53.225Z,11.33
2018-10-05T21:06:23.319Z,13.00
2018-10-05T21:08:53.955Z,8.70
2018-10-05T21:11:28.176Z,10.33
2018-10-05T21:13:57.985Z,8.67
2018-10-05T21:16:32.962Z,10.97
2018-10-05T21:19:03.804Z,8.47
2018-10-05T21:21:33.689Z,9.07
2018-10-05T21:24:05.953Z,8.60
2018-10-05T21:26:35.599Z,9.27
2018-10-05T21:29:06.517Z,9.40
2018-10-05T21:31:36.084Z,11.37
2018-10-05T21:34:07.029Z,11.13
2018-10-05T21:36:36.797Z,9.50
2018-10-05T21:39:08.964Z,8.40
2018-10-05T21:41:39.299Z,10.07
2018-10-05T21:44:09.251Z,14.63
2018-10-05T21:46:39.203Z,12.60
2018-10-05T21:49:09.249Z,9.43
2018-10-05T21:51:39.450Z,10.50
2018-10-05T21:54:16.185Z,9.23
2018-10-05T21:56:46.020Z,9.73
2018-10-05T21:59:15.688Z,10.43
2018-10-05T22:01:46.396Z,8.53
2018-10-05T22:04:16.964Z,9.00
2018-10-05T22:06:47.448Z,12.97
2018-10-05T22:09:17.851Z,12.47
2018-10-05T22:11:54.397Z,9.57
2018-10-05T22:14:24.939Z,9.23
2018-10-05T22:16:55.788Z,10.23
2018-10-05T22:19:27.328Z,13.03
2018-10-05T22:21:57.796Z,10.07
2018-10-05T22:24:28.215Z,14.37
2018-10-05T22:26:59.673Z,10.90
2018-10-05T22:29:30.851Z,13.90
2018-10-05T22:32:02.130Z,10.97
2018-10-05T22:34:32.458Z,10.10
2018-10-05T22:37:03.074Z,10.00
2018-10-05T22:39:34.245Z,8.60
2018-10-05T22:42:05.070Z,10.57
2018-10-05T22:44:35.551Z,12.93
2018-10-05T22:47:08.430Z,12.10
2018-10-05T22:49:38.854Z,15.33
2018-10-05T22:52:15.465Z,12.97
2018-10-05T22:54:46.133Z,11.17
2018-10-05T22:57:17.415Z,12.23
2018-10-05T22:59:48.251Z,13.07
2018-10-05T23:02:19.188Z,15.90
2018-10-05T23:04:50.259Z,11.53
2018-10-05T23:07:20.500Z,14.93
2018-10-05T23:09:51.237Z,12.73
2018-10-05T23:12:21.844Z,14.13
2018-10-05T23:14:52.686Z,16.23
2018-10-05T23:17:23.306Z,15.77
2018-10-05T23:19:53.703Z,14.60
2018-10-05T23:22:24.738Z,13.57
2018-10-05T23:24:55.183Z,11.50
2018-10-05T23:27:25.640Z,16.73
2018-10-05T23:29:55.430Z,16.37
2018-10-05T23:32:26.282Z,14.30
2018-10-05T23:34:56.828Z,13.03
2018-10-05T23:37:27.247Z,15.70
2018-10-05T23:39:57.552Z,14.47
2018-10-05T23:42:31.447Z,12.90
2018-10-05T23:45:01.589Z,15.87
2018-10-05T23:47:41.522Z,15.67
2018-10-05T23:50:12.558Z,15.17
2018-10-05T23:52:49.309Z,16.87
2018-10-05T23:55:20.732Z,16.37
2018-10-05T23:57:51.892Z,15.40
